Time;durP1;ratioP1;P1;durP2;ratioP2;P2;SDS_P1;SDS_P2;PMS_P1;PMS_P2;Temp;Humidity;BMP_temperature;BMP_pressure;BME280_temperature;BME280_humidity;BME280_pressure;Samples;Min_cycle;Max_cycle;Signal;HPM_P1;HPM_P2
2023/01/13 09:52:37;;;;;;;9.77;0.90;;;9.60;99.90;;;;;;4971667;23;20236;-68
2023/01/13 09:55:08;;;;;;;7.37;1.03;;;9.70;99.90;;;;;;4929194;29;20212;-68
2023/01/13 09:57:38;;;;;;;3.93;0.67;;;9.70;99.90;;;;;;4936765;29;20216;-71
2023/01/13 10:00:12;;;;;;;9.10;1.13;;;9.70;99.90;;;;;;4932602;29;20757;-69
2023/01/13 10:02:54;;;;;;;10.77;1.47;;;9.90;99.90;;;;;;4915962;29;20576;-69
2023/01/13 10:05:32;;;;;;;6.27;0.90;;;10.00;99.90;;;;;;4916823;29;20665;-71
2023/01/13 10:08:05;;;;;;;9.80;1.40;;;9.90;99.90;;;;;;4916051;29;20213;-72
2023/01/13 10:10:38;;;;;;;7.83;1.23;;;9.90;99.90;;;;;;4924924;29;20229;-73
2023/01/13 10:13:14;;;;;;;7.33;1.03;;;9.80;99.90;;;;;;4935968;29;20221;-71
2023/01/13 10:15:48;;;;;;;10.47;1.23;;;9.80;99.90;;;;;;4935378;29;20264;-72
2023/01/13 10:18:21;;;;;;;4.87;0.93;;;9.80;99.90;;;;;;4935654;29;20216;-72
2023/01/13 10:20:56;;;;;;;7.20;1.20;;;9.80;99.90;;;;;;4934628;29;20209;-71
2023/01/13 10:23:38;;;;;;;8.47;1.07;;;9.70;99.90;;;;;;4934858;29;20208;-73
2023/01/13 10:26:22;;;;;;;6.57;0.97;;;9.70;99.90;;;;;;4935245;29;20216;-72
2023/01/13 10:28:52;;;;;;;5.00;0.70;;;9.80;99.90;;;;;;4929742;29;20411;-73
2023/01/13 10:31:20;;;;;;;6.27;1.10;;;9.90;99.90;;;;;;4933751;29;20244;-71
2023/01/13 10:33:48;;;;;;;6.77;0.77;;;9.90;99.90;;;;;;4935118;29;20209;-71
2023/01/13 10:36:16;;;;;;;7.30;0.90;;;9.80;99.90;;;;;;4934933;29;20668;-71
2023/01/13 10:38:46;;;;;;;9.43;0.83;;;9.70;99.90;;;;;;4946513;28;20259;-73
2023/01/13 10:41:25;;;;;;;7.40;0.70;;;9.90;99.90;;;;;;4939850;29;20213;-71
2023/01/13 10:44:02;;;;;;;6.03;0.87;;;9.90;99.90;;;;;;4935000;29;20656;-71
2023/01/13 10:46:31;;;;;;;7.10;1.20;;;9.90;99.90;;;;;;4934774;29;20668;-72
2023/01/13 10:48:59;;;;;;;10.03;1.03;;;9.90;99.90;;;;;;4934809;29;20233;-71
2023/01/13 10:51:28;;;;;;;12.33;1.13;;;10.00;99.90;;;;;;4934209;29;20715;-72
2023/01/13 10:53:59;;;;;;;6.37;1.07;;;9.90;99.90;;;;;;4934796;29;20215;-73
2023/01/13 10:56:28;;;;;;;14.20;1.43;;;9.70;99.90;;;;;;4934849;29;20564;-72
2023/01/13 10:59:15;;;;;;;7.60;1.30;;;9.70;99.90;;;;;;4934154;29;20224;-72
2023/01/13 11:01:43;;;;;;;6.30;1.00;;;9.80;99.90;;;;;;4934416;29;20682;-71
2023/01/13 11:04:29;;;;;;;5.47;0.73;;;9.80;99.90;;;;;;4935003;29;20216;-73
2023/01/13 11:06:56;;;;;;;21.53;0.97;;;9.90;99.90;;;;;;4933455;29;20296;-74
2023/01/13 11:09:26;;;;;;;11.17;1.13;;;10.00;99.90;;;;;;4934589;29;20228;-72
2023/01/13 11:11:55;;;;;;;6.70;1.10;;;10.10;99.90;;;;;;4933921;29;20603;-70
2023/01/13 11:14:35;;;;;;;13.83;1.50;;;10.20;99.90;;;;;;4934310;29;20216;-70
2023/01/13 11:17:21;;;;;;;7.20;1.13;;;10.30;99.90;;;;;;4934784;29;20664;-72
2023/01/13 11:19:53;;;;;;;7.93;1.30;;;10.30;99.90;;;;;;4934666;29;20327;-72
2023/01/13 11:22:24;;;;;;;6.80;0.90;;;10.10;99.90;;;;;;4933896;29;20219;-72
2023/01/13 11:24:56;;;;;;;9.43;1.00;;;10.00;99.90;;;;;;4934069;29;20219;-70
2023/01/13 11:27:34;;;;;;;12.73;1.47;;;10.00;99.90;;;;;;4934404;29;20231;-71
2023/01/13 11:30:10;;;;;;;4.63;0.93;;;9.80;99.90;;;;;;4933929;29;20232;-72
2023/01/13 11:32:45;;;;;;;8.60;1.17;;;9.70;99.90;;;;;;4934106;29;20723;-74
2023/01/13 11:35:17;;;;;;;8.33;0.90;;;9.70;99.90;;;;;;4934327;29;20211;-71
2023/01/13 11:37:52;;;;;;;10.57;1.00;;;9.80;99.90;;;;;;4933867;29;20217;-70
2023/01/13 11:40:30;;;;;;;6.03;0.90;;;9.80;99.90;;;;;;4933861;29;20319;-71
2023/01/13 11:43:03;;;;;;;10.50;1.53;;;9.80;99.90;;;;;;4934146;29;20224;-73
2023/01/13 11:45:37;;;;;;;10.33;1.10;;;9.70;99.90;;;;;;4935204;29;20690;-70
2023/01/13 11:48:04;;;;;;;9.87;0.93;;;9.60;99.90;;;;;;4938304;29;20659;-70
2023/01/13 11:50:37;;;;;;;9.73;1.20;;;9.60;99.90;;;;;;4938014;29;20228;-70
2023/01/13 11:53:20;;;;;;;10.37;1.00;;;9.60;99.90;;;;;;4937839;29;20246;-70
2023/01/13 11:55:58;;;;;;;10.97;1.07;;;9.70;99.90;;;;;;4938102;29;20208;-69
2023/01/13 11:58:45;;;;;;;5.33;1.00;;;9.70;99.90;;;;;;4937673;29;20264;-68
2023/01/13 12:01:29;;;;;;;6.33;0.83;;;9.70;99.90;;;;;;4938258;29;20299;-68
2023/01/13 12:04:10;;;;;;;6.03;1.13;;;9.60;99.90;;;;;;4938722;29;20255;-69
2023/01/13 12:06:39;;;;;;;10.77;1.47;;;9.60;99.90;;;;;;4939383;29;20240;-69
2023/01/13 12:09:27;;;;;;;7.10;1.17;;;9.70;99.90;;;;;;4938841;29;20232;-70
2023/01/13 12:12:19;;;;;;;7.33;1.00;;;9.70;99.90;;;;;;4938937;29;20637;-69
2023/01/13 12:15:01;;;;;;;7.77;0.80;;;9.70;99.90;;;;;;4939169;29;20579;-70
2023/01/13 12:17:39;;;;;;;7.20;1.20;;;9.90;99.90;;;;;;4939042;29;20216;-70
2023/01/13 12:20:20;;;;;;;9.00;1.33;;;10.10;99.90;;;;;;4938934;29;20708;-69
2023/01/13 12:22:52;;;;;;;6.43;1.07;;;10.10;99.90;;;;;;4938265;29;20219;-70
2023/01/13 12:25:27;;;;;;;5.23;0.93;;;10.00;99.90;;;;;;4938200;29;20675;-69
2023/01/13 12:28:01;;;;;;;16.97;1.80;;;9.90;99.90;;;;;;4938350;29;20224;-70
2023/01/13 12:30:35;;;;;;;5.33;0.80;;;9.90;99.90;;;;;;4938500;29;20228;-68
2023/01/13 12:33:15;;;;;;;5.37;1.03;;;9.90;99.90;;;;;;4938342;29;20240;-68
2023/01/13 12:35:49;;;;;;;10.23;1.83;;;9.90;99.90;;;;;;4937843;29;20671;-69
2023/01/13 12:38:22;;;;;;;5.53;0.83;;;9.80;99.90;;;;;;4937158;29;20213;-68
2023/01/13 12:41:01;;;;;;;9.83;1.57;;;10.00;99.90;;;;;;4938015;29;20224;-69
2023/01/13 12:46:33;;;;;;;3.33;0.80;;;9.80;99.90;;;;;;4918961;29;20232;-69
2023/01/13 12:49:17;;;;;;;12.30;1.40;;;9.90;99.90;;;;;;4918706;29;20233;-69
2023/01/13 12:52:02;;;;;;;5.67;0.90;;;9.90;99.90;;;;;;4918747;29;20233;-68
2023/01/13 12:54:48;;;;;;;5.83;1.40;;;10.00;99.90;;;;;;4918804;29;20209;-68
2023/01/13 12:57:20;;;;;;;3.33;0.70;;;10.00;99.90;;;;;;4917746;29;20213;-68
2023/01/13 13:00:14;;;;;;;6.87;0.90;;;10.00;99.90;;;;;;4918437;29;20726;-68
2023/01/13 13:02:42;;;;;;;7.87;0.60;;;10.00;99.90;;;;;;4918755;29;20280;-68
2023/01/13 13:05:52;;;;;;;5.30;0.90;;;9.90;99.90;;;;;;4917118;29;20209;-68
2023/01/13 13:08:24;;;;;;;4.10;1.00;;;9.90;99.90;;;;;;4917587;29;20213;-70
2023/01/13 13:14:02;;;;;;;7.10;0.93;;;9.90;99.90;;;;;;4918739;29;20324;-68
2023/01/13 13:16:46;;;;;;;10.50;1.10;;;10.00;99.90;;;;;;4918039;29;20583;-69
2023/01/13 13:19:42;;;;;;;4.57;1.20;;;9.90;99.90;;;;;;4918684;29;20233;-69
2023/01/13 13:22:37;;;;;;;7.87;0.73;;;10.10;99.90;;;;;;4918912;29;20213;-68
2023/01/13 13:25:25;;;;;;;8.50;1.10;;;10.10;99.90;;;;;;4918947;29;20300;-68
2023/01/13 13:28:16;;;;;;;5.73;0.93;;;10.30;99.90;;;;;;4918895;29;20218;-68
2023/01/13 13:30:52;;;;;;;8.63;1.03;;;10.40;99.90;;;;;;4918665;29;20209;-67
2023/01/13 13:33:41;;;;;;;5.83;1.00;;;10.50;99.90;;;;;;4918903;29;20237;-68
2023/01/13 13:36:27;;;;;;;9.43;1.13;;;10.40;99.90;;;;;;4918889;29;20216;-68
2023/01/13 13:47:25;;;;;;;8.93;0.80;;;10.30;99.90;;;;;;4918958;29;20209;-68
2023/01/13 13:49:54;;;;;;;8.03;1.37;;;10.20;99.90;;;;;;4918902;29;20237;-68
2023/01/13 13:52:25;;;;;;;3.63;0.50;;;10.20;99.90;;;;;;4918146;29;20244;-69
2023/01/13 13:54:54;;;;;;;6.17;0.90;;;10.30;99.90;;;;;;4918376;29;20265;-68
2023/01/13 13:57:26;;;;;;;6.80;0.80;;;10.40;99.90;;;;;;4918322;29;20209;-68
2023/01/13 13:59:55;;;;;;;4.73;1.00;;;10.40;99.90;;;;;;4918179;29;20238;-69
2023/01/13 14:02:28;;;;;;;3.90;0.70;;;10.40;99.90;;;;;;4918177;29;20217;-69
2023/01/13 14:05:17;;;;;;;9.13;1.33;;;10.30;99.90;;;;;;4918338;29;20223;-69
2023/01/13 14:07:44;;;;;;;5.70;1.37;;;10.30;99.90;;;;;;4918043;29;20220;-69
2023/01/13 14:10:19;;;;;;;9.93;0.93;;;10.30;99.90;;;;;;4917069;29;20244;-69
2023/01/13 14:12:46;;;;;;;2.10;0.50;;;10.30;99.90;;;;;;4918130;29;20715;-69
2023/01/13 14:15:27;;;;;;;4.77;0.80;;;10.30;99.90;;;;;;4918127;29;20218;-69
2023/01/13 14:17:54;;;;;;;3.73;0.77;;;10.30;99.90;;;;;;4917939;29;20221;-69
2023/01/13 14:20:22;;;;;;;3.77;0.80;;;10.40;99.90;;;;;;4917853;29;20237;-69
2023/01/13 14:22:53;;;;;;;7.57;1.10;;;10.40;99.90;;;;;;4918101;29;20209;-68
2023/01/13 14:25:38;;;;;;;6.90;0.97;;;10.50;99.90;;;;;;4918216;29;20232;-68
2023/01/13 14:28:17;;;;;;;7.50;0.90;;;10.40;99.90;;;;;;4917730;29;20247;-68
2023/01/13 14:30:44;;;;;;;4.63;0.87;;;10.40;99.90;;;;;;4917821;29;20220;-68
2023/01/13 14:33:16;;;;;;;6.37;1.33;;;10.50;99.90;;;;;;4917529;29;20248;-68
2023/01/13 14:36:06;;;;;;;5.27;1.17;;;10.60;99.90;;;;;;4917760;29;20213;-69
2023/01/13 14:38:32;;;;;;;8.63;1.37;;;10.50;99.90;;;;;;4917483;29;20213;-68
2023/01/13 14:41:20;;;;;;;7.73;1.07;;;10.40;99.90;;;;;;4917520;29;20220;-68
2023/01/13 14:43:49;;;;;;;4.27;0.90;;;10.50;99.90;;;;;;4917564;29;20210;-68
2023/01/13 14:46:19;;;;;;;12.87;1.43;;;10.40;99.90;;;;;;4917705;29;20231;-68
2023/01/13 14:48:47;;;;;;;3.73;0.60;;;10.50;99.90;;;;;;4917595;29;20363;-67
2023/01/13 14:51:23;;;;;;;2.97;1.00;;;10.60;99.90;;;;;;4917520;29;20205;-68
2023/01/13 14:53:51;;;;;;;7.07;1.70;;;10.60;99.90;;;;;;4917017;29;20248;-68
2023/01/13 14:56:41;;;;;;;7.23;0.90;;;10.50;99.90;;;;;;4917416;29;20209;-68
2023/01/13 14:59:54;;;;;;;5.90;1.10;;;10.30;99.90;;;;;;4917504;29;20680;-68
2023/01/13 15:02:42;;;;;;;4.50;0.83;;;10.30;99.90;;;;;;4908372;29;20213;-68
2023/01/13 15:05:41;;;;;;;6.50;0.87;;;10.20;99.90;;;;;;4914399;29;20665;-68
2023/01/13 15:08:37;;;;;;;6.77;0.93;;;10.20;99.90;;;;;;4877463;29;20228;-69
2023/01/13 15:11:06;;;;;;;6.40;0.80;;;10.20;99.90;;;;;;4906817;29;20269;-69
2023/01/13 15:13:40;;;;;;;5.63;0.77;;;10.20;99.90;;;;;;4917110;29;20241;-69
2023/01/13 15:16:14;;;;;;;6.10;0.83;;;10.20;99.90;;;;;;4917059;29;20659;-68
2023/01/13 15:18:41;;;;;;;6.70;0.90;;;10.20;99.90;;;;;;4916923;29;20705;-68
2023/01/13 15:21:08;;;;;;;6.80;0.90;;;10.30;99.90;;;;;;4916621;29;20648;-68
2023/01/13 15:23:38;;;;;;;5.13;0.60;;;10.20;99.90;;;;;;4917103;29;20221;-68
2023/01/13 15:26:17;;;;;;;3.20;0.73;;;10.10;99.90;;;;;;4916998;29;20221;-68
2023/01/13 15:28:44;;;;;;;5.30;0.93;;;10.20;99.90;;;;;;4916983;29;20297;-68
2023/01/13 15:31:12;;;;;;;13.13;0.87;;;10.10;99.90;;;;;;4916743;29;20264;-68
2023/01/13 15:33:39;;;;;;;5.47;0.80;;;10.10;99.90;;;;;;4916814;29;20241;-68
2023/01/13 15:36:17;;;;;;;9.03;1.07;;;10.20;99.90;;;;;;4917003;29;20205;-68
2023/01/13 15:38:45;;;;;;;5.87;0.73;;;10.10;99.90;;;;;;4916649;29;20229;-68
2023/01/13 15:41:12;;;;;;;7.37;1.43;;;10.00;99.90;;;;;;4916796;29;20213;-68
2023/01/13 15:46:39;;;;;;;7.07;0.73;;;9.90;99.90;;;;;;4916925;29;20209;-68
2023/01/13 15:49:11;;;;;;;7.97;0.90;;;9.80;99.90;;;;;;4917198;29;20549;-68
2023/01/13 15:51:39;;;;;;;6.33;0.83;;;9.70;99.90;;;;;;4916462;29;20213;-67
2023/01/13 15:54:07;;;;;;;2.80;0.70;;;9.70;99.90;;;;;;4916437;29;20247;-68
2023/01/13 15:56:36;;;;;;;6.13;1.10;;;9.70;99.90;;;;;;4916690;29;20248;-69
2023/01/13 15:59:03;;;;;;;1.93;0.70;;;9.60;99.90;;;;;;4916895;29;20323;-67
2023/01/13 16:01:30;;;;;;;6.73;0.97;;;9.60;99.90;;;;;;4916811;29;20224;-68
2023/01/13 16:03:57;;;;;;;7.17;0.97;;;9.70;99.90;;;;;;4916563;29;20213;-70
2023/01/13 16:06:31;;;;;;;4.67;1.07;;;9.70;99.90;;;;;;4916617;29;20210;-68
2023/01/13 16:08:58;;;;;;;9.80;1.00;;;9.70;99.90;;;;;;4916173;29;20772;-69
2023/01/13 16:11:26;;;;;;;6.73;2.20;;;9.60;99.90;;;;;;4916470;29;20665;-68
2023/01/13 16:13:53;;;;;;;11.37;1.73;;;9.50;99.90;;;;;;4916599;29;20237;-68
2023/01/13 16:16:23;;;;;;;5.17;1.03;;;9.50;99.90;;;;;;4916960;29;20212;-68
2023/01/13 16:18:50;;;;;;;4.47;1.00;;;9.50;99.90;;;;;;4916481;29;20234;-68
2023/01/13 16:21:19;;;;;;;4.03;1.07;;;9.50;99.90;;;;;;4916332;29;20215;-68
2023/01/13 16:23:46;;;;;;;5.50;1.10;;;9.30;99.90;;;;;;4915899;29;20544;-68
2023/01/13 16:26:24;;;;;;;4.37;0.97;;;9.30;99.90;;;;;;4916462;29;20210;-68
2023/01/13 16:28:55;;;;;;;7.00;1.30;;;9.20;99.90;;;;;;4916283;29;20320;-68
2023/01/13 16:31:25;;;;;;;7.00;1.10;;;9.20;99.90;;;;;;4916198;29;20220;-68
2023/01/13 16:33:52;;;;;;;8.47;1.23;;;9.10;99.90;;;;;;4919572;29;20241;-68
2023/01/13 16:36:20;;;;;;;10.40;1.20;;;9.10;99.90;;;;;;4919905;29;20579;-68
2023/01/13 16:38:48;;;;;;;2.27;0.67;;;9.00;99.90;;;;;;4919622;29;20233;-68
2023/01/13 16:41:15;;;;;;;10.80;1.10;;;9.00;99.90;;;;;;4919680;29;20220;-68
2023/01/13 16:43:42;;;;;;;4.40;1.17;;;9.00;99.90;;;;;;4919470;29;20213;-69
2023/01/13 16:46:23;;;;;;;5.33;1.27;;;9.00;99.90;;;;;;4919488;29;20210;-68
2023/01/13 16:48:51;;;;;;;8.20;1.57;;;8.90;99.90;;;;;;4919701;29;20268;-69
2023/01/13 16:51:18;;;;;;;10.80;1.67;;;8.90;99.90;;;;;;4919532;29;20210;-69
2023/01/13 16:53:45;;;;;;;7.53;1.40;;;9.00;99.90;;;;;;4919408;29;20694;-68
2023/01/13 16:56:19;;;;;;;6.33;1.37;;;8.90;99.90;;;;;;4919819;29;20220;-68
2023/01/13 16:58:46;;;;;;;8.37;1.87;;;8.80;99.90;;;;;;4919252;29;20261;-68
2023/01/13 17:01:21;;;;;;;7.77;1.47;;;8.80;99.90;;;;;;4919226;29;20216;-69
2023/01/13 17:03:50;;;;;;;7.77;1.20;;;8.70;99.90;;;;;;4919499;29;20213;-68
2023/01/13 17:06:18;;;;;;;6.37;1.23;;;8.70;99.90;;;;;;4919277;29;20215;-68
2023/01/13 17:08:45;;;;;;;7.60;1.50;;;8.70;99.90;;;;;;4918933;29;20226;-68
2023/01/13 17:11:12;;;;;;;5.83;1.10;;;8.70;99.90;;;;;;4918878;29;20216;-69
2023/01/13 17:13:39;;;;;;;10.57;1.60;;;8.70;99.90;;;;;;4919157;29;20277;-68
2023/01/13 17:16:14;;;;;;;10.90;1.67;;;8.70;99.90;;;;;;4919055;29;20268;-69
2023/01/13 17:18:42;;;;;;;8.77;1.30;;;8.60;99.90;;;;;;4918394;29;20228;-68
2023/01/13 17:21:09;;;;;;;6.67;1.60;;;8.60;99.90;;;;;;4918740;29;20216;-68
2023/01/13 17:23:35;;;;;;;11.33;1.60;;;8.60;99.90;;;;;;4918533;29;20215;-68
2023/01/13 17:26:02;;;;;;;12.67;1.57;;;8.50;99.90;;;;;;4918711;29;20302;-68
2023/01/13 17:28:30;;;;;;;10.80;1.57;;;8.50;99.90;;;;;;4918962;29;20209;-68
2023/01/13 17:30:57;;;;;;;9.23;2.37;;;8.60;99.90;;;;;;4919133;29;20210;-68
2023/01/13 17:33:24;;;;;;;11.13;2.43;;;8.50;99.90;;;;;;4918789;29;20248;-68
2023/01/13 17:35:52;;;;;;;11.13;2.23;;;8.60;99.90;;;;;;4918955;29;20301;-67
2023/01/13 17:38:18;;;;;;;8.53;3.07;;;8.60;99.90;;;;;;4918346;29;20218;-69
2023/01/13 17:40:45;;;;;;;6.60;1.90;;;8.70;99.90;;;;;;4919020;29;20584;-68
2023/01/13 17:43:12;;;;;;;11.63;1.50;;;8.80;99.90;;;;;;4918724;29;20620;-68
2023/01/13 17:45:41;;;;;;;7.87;1.30;;;8.80;99.90;;;;;;4918851;29;20233;-69
2023/01/13 17:48:08;;;;;;;6.03;1.30;;;8.90;99.90;;;;;;4918245;29;20661;-69
2023/01/13 17:50:35;;;;;;;10.60;1.20;;;8.90;99.90;;;;;;4917783;29;20289;-69
2023/01/13 17:53:03;;;;;;;4.87;1.00;;;8.90;99.90;;;;;;4917437;29;20244;-68
2023/01/13 17:55:30;;;;;;;8.30;1.80;;;8.90;99.90;;;;;;4917680;29;20215;-69
2023/01/13 17:57:56;;;;;;;11.50;1.70;;;8.90;99.90;;;;;;4917998;29;20220;-68
2023/01/13 18:00:23;;;;;;;7.83;1.30;;;9.00;99.90;;;;;;4917389;29;20233;-68
2023/01/13 18:02:50;;;;;;;4.90;1.60;;;8.90;99.90;;;;;;4917550;29;20768;-68
2023/01/13 18:05:17;;;;;;;7.33;1.37;;;8.90;99.90;;;;;;4917436;29;20212;-68
2023/01/13 18:07:44;;;;;;;12.43;1.60;;;9.00;99.90;;;;;;4917922;29;20533;-68
2023/01/13 18:10:12;;;;;;;5.80;1.80;;;9.00;99.90;;;;;;4917386;29;20229;-68
2023/01/13 18:12:39;;;;;;;9.77;1.17;;;9.00;99.90;;;;;;4918112;29;20219;-68
2023/01/13 18:15:07;;;;;;;13.83;1.53;;;9.00;99.90;;;;;;4918053;29;20244;-69
2023/01/13 18:17:34;;;;;;;7.43;1.60;;;9.10;99.90;;;;;;4917935;29;20588;-68
2023/01/13 18:28:15;;;;;;;15.60;1.63;;;9.10;99.90;;;;;;4917496;29;20217;-68
2023/01/13 18:30:41;;;;;;;13.43;2.00;;;9.10;99.90;;;;;;4917494;29;20229;-68
2023/01/13 18:33:08;;;;;;;12.90;1.87;;;9.20;99.90;;;;;;4917700;29;20209;-69
2023/01/13 18:35:38;;;;;;;10.00;1.63;;;9.20;99.90;;;;;;4917694;29;20240;-69
2023/01/13 18:38:05;;;;;;;11.17;1.90;;;9.20;99.90;;;;;;4917375;29;20209;-69
2023/01/13 18:40:33;;;;;;;12.07;2.03;;;9.20;99.90;;;;;;4917251;29;20574;-69
2023/01/13 18:42:59;;;;;;;12.67;1.47;;;9.20;99.90;;;;;;4917210;29;20210;-69
2023/01/13 18:45:28;;;;;;;15.63;1.60;;;9.20;99.90;;;;;;4917276;29;20213;-69
2023/01/13 18:47:57;;;;;;;16.27;2.40;;;9.20;99.90;;;;;;4917299;29;20216;-69
2023/01/13 18:50:24;;;;;;;10.10;1.50;;;9.20;99.90;;;;;;4916617;29;20727;-69
2023/01/13 18:52:51;;;;;;;13.30;1.73;;;9.20;99.90;;;;;;4916867;29;20224;-68
2023/01/13 18:55:18;;;;;;;10.47;1.70;;;9.20;99.90;;;;;;4916039;29;20708;-68
2023/01/13 18:57:47;;;;;;;10.70;1.23;;;9.20;99.90;;;;;;4916852;29;20229;-69
2023/01/13 19:00:24;;;;;;;9.87;1.53;;;9.10;99.90;;;;;;4917095;29;20244;-68
2023/01/13 19:02:52;;;;;;;9.53;1.50;;;9.10;99.90;;;;;;4918148;29;20732;-68
2023/01/13 19:05:20;;;;;;;12.83;2.60;;;9.00;99.90;;;;;;4917004;29;20300;-68
2023/01/13 19:07:49;;;;;;;8.60;1.90;;;8.90;99.90;;;;;;4916608;29;20216;-67
2023/01/13 19:10:17;;;;;;;13.97;2.13;;;8.80;99.90;;;;;;4916505;29;20225;-69
2023/01/13 19:12:44;;;;;;;14.97;2.50;;;8.80;99.90;;;;;;4916940;29;20309;-69
2023/01/13 19:15:12;;;;;;;14.13;2.33;;;8.70;99.90;;;;;;4927969;29;20239;-68
2023/01/13 19:17:39;;;;;;;10.17;1.20;;;8.70;99.90;;;;;;4934499;29;20217;-72
2023/01/13 19:20:07;;;;;;;12.13;1.90;;;8.70;99.90;;;;;;4924761;29;20730;-70
2023/01/13 19:22:34;;;;;;;9.97;1.70;;;8.70;99.90;;;;;;4933227;29;20241;-70
2023/01/13 19:25:02;;;;;;;16.70;2.00;;;8.60;99.90;;;;;;4922569;29;20212;-69
2023/01/13 19:27:29;;;;;;;12.30;1.97;;;8.60;99.90;;;;;;4914747;29;20277;-69
2023/01/13 19:29:59;;;;;;;13.00;1.80;;;8.60;99.90;;;;;;4919506;29;20416;-69
2023/01/13 19:32:29;;;;;;;16.63;2.20;;;8.60;99.90;;;;;;4922065;29;20208;-69
2023/01/13 19:34:58;;;;;;;9.87;1.43;;;8.60;99.90;;;;;;4924833;29;20237;-69
2023/01/13 19:37:28;;;;;;;8.03;1.63;;;8.70;99.90;;;;;;4929324;29;20704;-69
2023/01/13 19:39:56;;;;;;;10.53;1.40;;;8.70;99.90;;;;;;4926640;29;20295;-69
2023/01/13 19:45:28;;;;;;;11.07;1.67;;;8.70;99.90;;;;;;4929661;29;20223;-69
2023/01/13 19:47:59;;;;;;;8.73;1.50;;;8.60;99.90;;;;;;4929306;29;20212;-69
2023/01/13 19:50:26;;;;;;;10.67;1.67;;;8.60;99.90;;;;;;4933219;29;20231;-69
2023/01/13 19:52:53;;;;;;;8.83;2.13;;;8.50;99.90;;;;;;4930633;29;20221;-69
2023/01/13 19:55:20;;;;;;;18.03;2.30;;;8.50;99.90;;;;;;4932300;29;20235;-68
2023/01/13 19:57:47;;;;;;;9.13;1.63;;;8.50;99.90;;;;;;4919731;29;20634;-69
2023/01/13 20:00:19;;;;;;;11.57;1.83;;;8.50;99.90;;;;;;4931546;29;20224;-68
2023/01/13 20:02:48;;;;;;;10.87;2.37;;;8.30;99.90;;;;;;4931428;29;20219;-69
2023/01/13 20:05:20;;;;;;;14.57;1.53;;;8.30;99.90;;;;;;4930469;29;20669;-69
2023/01/13 20:07:47;;;;;;;15.20;2.60;;;8.30;99.90;;;;;;4927621;29;20205;-69
2023/01/13 20:10:14;;;;;;;12.00;1.73;;;8.30;99.90;;;;;;4931592;29;20236;-69
2023/01/13 20:12:41;;;;;;;10.63;1.57;;;8.30;99.90;;;;;;4938258;29;20208;-69
2023/01/13 20:15:09;;;;;;;11.10;1.67;;;8.30;99.90;;;;;;4931638;29;20712;-68
2023/01/13 20:17:36;;;;;;;20.57;2.50;;;8.30;99.90;;;;;;4938055;29;20213;-68
2023/01/13 20:20:03;;;;;;;12.77;1.70;;;8.20;99.90;;;;;;4929978;29;20235;-68
2023/01/13 20:22:31;;;;;;;13.23;2.27;;;8.20;99.90;;;;;;4937909;29;20212;-68
2023/01/13 20:24:58;;;;;;;17.90;2.23;;;8.20;99.90;;;;;;4924092;29;20210;-69
2023/01/13 20:27:25;;;;;;;12.17;1.93;;;8.20;99.90;;;;;;4938069;29;20212;-68
2023/01/13 20:29:52;;;;;;;12.57;2.37;;;8.20;99.90;;;;;;4934048;29;20250;-69
2023/01/13 20:32:18;;;;;;;16.03;1.77;;;8.30;99.90;;;;;;4936804;29;20213;-69
2023/01/13 20:34:45;;;;;;;15.17;1.87;;;8.30;99.90;;;;;;4923647;29;20369;-69
2023/01/13 20:37:12;;;;;;;13.63;1.70;;;8.30;99.90;;;;;;4935605;29;20212;-70
2023/01/13 20:39:42;;;;;;;9.77;1.67;;;8.30;99.90;;;;;;4928851;29;20272;-68
2023/01/13 20:44:53;;;;;;;14.23;1.67;;;8.30;99.90;;;;;;4926671;29;20223;-69
2023/01/13 20:47:20;;;;;;;14.70;1.87;;;8.30;99.90;;;;;;4929913;29;20554;-69
2023/01/13 20:49:47;;;;;;;10.17;1.67;;;8.30;99.90;;;;;;4937522;29;20240;-69
2023/01/13 20:52:14;;;;;;;12.73;1.70;;;8.30;99.90;;;;;;4933924;29;20628;-68
2023/01/13 20:54:42;;;;;;;10.70;1.70;;;8.20;99.90;;;;;;4918497;29;20297;-68
2023/01/13 20:57:10;;;;;;;10.20;1.70;;;8.20;99.90;;;;;;4935197;29;20205;-68
2023/01/13 20:59:38;;;;;;;11.27;1.43;;;8.20;99.90;;;;;;4936730;29;20292;-68
2023/01/13 21:02:06;;;;;;;9.77;1.87;;;8.10;99.90;;;;;;4933752;29;20216;-69
2023/01/13 21:04:34;;;;;;;11.03;1.83;;;8.10;99.90;;;;;;4935026;29;20213;-69
2023/01/13 21:07:00;;;;;;;4.80;1.37;;;8.10;99.90;;;;;;4924212;29;20213;-69
2023/01/13 21:09:28;;;;;;;7.57;1.07;;;8.10;99.90;;;;;;4933526;29;20231;-69
2023/01/13 21:20:11;;;;;;;12.23;1.83;;;8.00;99.90;;;;;;4931459;29;20326;-69
2023/01/13 21:22:39;;;;;;;16.20;1.73;;;8.00;99.90;;;;;;4930290;29;20205;-69
2023/01/13 21:25:07;;;;;;;15.07;1.70;;;8.00;99.90;;;;;;4930854;29;20560;-69
2023/01/13 21:27:47;;;;;;;13.07;1.90;;;8.00;99.90;;;;;;4936965;29;20211;-69
2023/01/13 21:30:15;;;;;;;8.63;1.53;;;8.00;99.90;;;;;;4929660;29;20335;-69
2023/01/13 21:32:43;;;;;;;10.23;1.53;;;8.00;99.90;;;;;;4927260;29;20208;-69
2023/01/13 21:35:10;;;;;;;8.23;1.70;;;8.00;99.90;;;;;;4923017;29;20268;-69
2023/01/13 21:37:37;;;;;;;11.93;1.93;;;8.00;99.90;;;;;;4930694;29;20204;-69
2023/01/13 21:40:05;;;;;;;13.07;1.70;;;7.90;99.90;;;;;;4927011;29;20226;-68
2023/01/13 21:48:03;;;;;;;15.23;2.17;;;7.90;99.90;;;;;;4920094;29;20219;-68
2023/01/13 21:50:30;;;;;;;14.80;1.90;;;7.90;99.90;;;;;;4919910;29;20255;-68
2023/01/13 21:52:58;;;;;;;10.90;1.67;;;7.80;99.90;;;;;;4932412;29;20221;-68
2023/01/13 21:55:27;;;;;;;7.23;1.20;;;7.80;99.90;;;;;;4931062;29;20684;-68
2023/01/13 21:57:55;;;;;;;8.47;1.03;;;7.80;99.90;;;;;;4928898;29;20740;-68
2023/01/13 22:00:25;;;;;;;11.83;1.97;;;7.70;99.90;;;;;;4932138;29;20229;-69
2023/01/13 22:02:53;;;;;;;12.63;1.97;;;7.70;99.90;;;;;;4925034;29;20205;-69
2023/01/13 22:05:22;;;;;;;7.00;1.40;;;7.80;99.90;;;;;;4932262;29;20213;-69
2023/01/13 22:07:49;;;;;;;12.63;1.70;;;7.70;99.90;;;;;;4929851;29;20215;-69
2023/01/13 22:10:17;;;;;;;12.40;1.80;;;7.70;99.90;;;;;;4932810;29;20312;-69
2023/01/13 22:12:44;;;;;;;13.43;1.90;;;7.70;99.90;;;;;;4928455;29;20209;-68
2023/01/13 22:15:13;;;;;;;9.83;2.10;;;7.80;99.90;;;;;;4925734;29;20236;-69
2023/01/13 22:17:44;;;;;;;17.77;2.17;;;7.70;99.90;;;;;;4926867;29;20206;-69
2023/01/13 22:20:12;;;;;;;13.00;1.50;;;7.70;99.90;;;;;;4931599;29;20311;-68
2023/01/13 22:22:39;;;;;;;11.43;2.03;;;7.70;99.90;;;;;;4930946;29;20209;-68
2023/01/13 22:25:08;;;;;;;7.57;1.53;;;7.70;99.90;;;;;;4928682;29;20216;-69
2023/01/13 22:27:39;;;;;;;10.03;1.60;;;7.70;99.90;;;;;;4926652;29;20285;-69
2023/01/13 22:30:08;;;;;;;12.53;1.70;;;7.60;99.90;;;;;;4927674;29;20229;-69
2023/01/13 22:32:37;;;;;;;13.97;3.93;;;7.70;99.90;;;;;;4931622;29;20205;-69
2023/01/13 22:35:10;;;;;;;15.40;2.27;;;7.70;99.90;;;;;;4933328;29;20691;-69
2023/01/13 22:37:37;;;;;;;13.83;1.90;;;7.60;99.90;;;;;;4925708;29;20213;-69
2023/01/13 22:40:07;;;;;;;7.77;1.40;;;7.60;99.90;;;;;;4931965;29;20235;-69
2023/01/13 22:42:36;;;;;;;22.27;1.60;;;7.60;99.90;;;;;;4933998;29;20212;-68
2023/01/13 22:45:04;;;;;;;18.90;1.70;;;7.50;99.90;;;;;;4931139;29;20216;-68
2023/01/13 22:47:31;;;;;;;14.40;2.03;;;7.50;99.90;;;;;;4922345;29;20220;-68
2023/01/13 22:49:57;;;;;;;17.13;1.57;;;7.50;99.90;;;;;;4932052;29;20584;-69
2023/01/13 22:52:27;;;;;;;13.77;1.40;;;7.60;99.90;;;;;;4933958;29;20220;-69
2023/01/13 22:54:54;;;;;;;12.47;2.73;;;7.50;99.90;;;;;;4935294;29;20576;-69
2023/01/13 22:57:21;;;;;;;13.47;2.33;;;7.50;99.90;;;;;;4935864;29;20209;-69
2023/01/13 22:59:48;;;;;;;10.00;1.53;;;7.40;99.90;;;;;;4935384;29;20235;-69
